sensor_id;sensor_type;location;lat;lon;timestamp;pressure;altitude;pressure_sealevel;temperature;humidity
59194;BME280;44967;48.598;15.650;2023-11-21T00:00:34;97721.63;;;3.67;92.49
59194;BME280;44967;48.598;15.650;2023-11-21T00:03:00;97716.31;;;3.71;92.98
59194;BME280;44967;48.598;15.650;2023-11-21T00:05:26;97711.16;;;3.67;92.59
59194;BME280;44967;48.598;15.650;2023-11-21T00:07:51;97712.88;;;3.68;92.90
59194;BME280;44967;48.598;15.650;2023-11-21T00:10:17;97712.13;;;3.58;91.89
59194;BME280;44967;48.598;15.650;2023-11-21T00:12:43;97713.97;;;3.50;92.63
59194;BME280;44967;48.598;15.650;2023-11-21T00:15:10;97712.19;;;3.52;93.20
59194;BME280;44967;48.598;15.650;2023-11-21T00:17:37;97706.09;;;3.53;94.01
59194;BME280;44967;48.598;15.650;2023-11-21T00:20:05;97701.69;;;3.57;93.80
59194;BME280;44967;48.598;15.650;2023-11-21T00:22:33;97703.38;;;3.62;93.44
59194;BME280;44967;48.598;15.650;2023-11-21T00:24:59;97699.03;;;3.61;93.06
59194;BME280;44967;48.598;15.650;2023-11-21T00:27:24;97711.31;;;3.55;92.86
59194;BME280;44967;48.598;15.650;2023-11-21T00:29:51;97723.47;;;3.57;92.45
59194;BME280;44967;48.598;15.650;2023-11-21T00:32:16;97713.09;;;3.51;92.03
59194;BME280;44967;48.598;15.650;2023-11-21T00:34:42;97718.28;;;3.54;92.10
59194;BME280;44967;48.598;15.650;2023-11-21T00:37:08;97718.25;;;3.57;91.84
59194;BME280;44967;48.598;15.650;2023-11-21T00:39:34;97711.31;;;3.55;92.41
59194;BME280;44967;48.598;15.650;2023-11-21T00:42:00;97716.50;;;3.58;92.58
59194;BME280;44967;48.598;15.650;2023-11-21T00:44:26;97717.31;;;3.61;92.82
59194;BME280;44967;48.598;15.650;2023-11-21T00:46:51;97711.22;;;3.62;92.49
59194;BME280;44967;48.598;15.650;2023-11-21T00:49:18;97713.00;;;3.59;92.87
59194;BME280;44967;48.598;15.650;2023-11-21T00:51:44;97712.00;;;3.67;93.92
59194;BME280;44967;48.598;15.650;2023-11-21T00:54:09;97705.84;;;3.71;93.54
59194;BME280;44967;48.598;15.650;2023-11-21T00:56:35;97711.88;;;3.76;93.38
59194;BME280;44967;48.598;15.650;2023-11-21T00:59:01;97703.28;;;3.68;92.48
59194;BME280;44967;48.598;15.650;2023-11-21T01:01:26;97700.81;;;3.56;92.43
59194;BME280;44967;48.598;15.650;2023-11-21T01:03:52;97706.03;;;3.59;92.71
59194;BME280;44967;48.598;15.650;2023-11-21T01:06:19;97693.75;;;3.66;92.99
59194;BME280;44967;48.598;15.650;2023-11-21T01:08:45;97686.78;;;3.65;92.82
59194;BME280;44967;48.598;15.650;2023-11-21T01:11:12;97682.53;;;3.56;92.66
59194;BME280;44967;48.598;15.650;2023-11-21T01:13:39;97686.00;;;3.58;93.42
59194;BME280;44967;48.598;15.650;2023-11-21T01:16:05;97674.59;;;3.64;92.93
59194;BME280;44967;48.598;15.650;2023-11-21T01:18:32;97678.03;;;3.69;93.17
59194;BME280;44967;48.598;15.650;2023-11-21T01:20:58;97676.25;;;3.72;93.02
59194;BME280;44967;48.598;15.650;2023-11-21T01:23:24;97673.56;;;3.75;92.60
59194;BME280;44967;48.598;15.650;2023-11-21T01:25:50;97682.31;;;3.74;92.48
59194;BME280;44967;48.598;15.650;2023-11-21T01:28:17;97686.63;;;3.77;92.74
59194;BME280;44967;48.598;15.650;2023-11-21T01:30:43;97695.34;;;3.77;92.81
59194;BME280;44967;48.598;15.650;2023-11-21T01:33:10;97699.69;;;3.77;92.49
59194;BME280;44967;48.598;15.650;2023-11-21T01:35:36;97702.38;;;3.72;92.28
59194;BME280;44967;48.598;15.650;2023-11-21T01:38:01;97701.41;;;3.79;92.84
59194;BME280;44967;48.598;15.650;2023-11-21T01:40:27;97691.94;;;3.71;93.81
59194;BME280;44967;48.598;15.650;2023-11-21T01:42:54;97686.63;;;3.75;94.09
59194;BME280;44967;48.598;15.650;2023-11-21T01:45:20;97693.59;;;3.78;93.46
59194;BME280;44967;48.598;15.650;2023-11-21T01:47:45;97691.94;;;3.71;93.10
59194;BME280;44967;48.598;15.650;2023-11-21T01:50:16;97690.28;;;3.65;92.82
59194;BME280;44967;48.598;15.650;2023-11-21T01:52:48;97695.38;;;3.74;94.41
59194;BME280;44967;48.598;15.650;2023-11-21T01:55:16;97688.28;;;3.84;94.32
59194;BME280;44967;48.598;15.650;2023-11-21T01:57:45;97688.25;;;3.86;94.34
59194;BME280;44967;48.598;15.650;2023-11-21T02:00:12;97694.38;;;3.85;94.02
59194;BME280;44967;48.598;15.650;2023-11-21T02:02:45;97694.34;;;3.86;93.32
59194;BME280;44967;48.598;15.650;2023-11-21T02:05:13;97701.22;;;3.92;93.72
59194;BME280;44967;48.598;15.650;2023-11-21T02:07:40;97686.56;;;3.82;93.00
59194;BME280;44967;48.598;15.650;2023-11-21T02:10:08;97684.03;;;3.77;93.64
59194;BME280;44967;48.598;15.650;2023-11-21T02:12:35;97685.72;;;3.81;93.12
59194;BME280;44967;48.598;15.650;2023-11-21T02:15:02;97671.88;;;3.73;92.75
59194;BME280;44967;48.598;15.650;2023-11-21T02:17:31;97679.72;;;3.73;92.42
59194;BME280;44967;48.598;15.650;2023-11-21T02:19:58;97675.44;;;3.67;93.28
59194;BME280;44967;48.598;15.650;2023-11-21T02:22:27;97680.75;;;3.61;92.71
59194;BME280;44967;48.598;15.650;2023-11-21T02:24:56;97682.47;;;3.62;92.87
59194;BME280;44967;48.598;15.650;2023-11-21T02:27:23;97672.03;;;3.62;92.63
59194;BME280;44967;48.598;15.650;2023-11-21T02:29:49;97668.56;;;3.62;92.18
59194;BME280;44967;48.598;15.650;2023-11-21T02:32:15;97673.81;;;3.59;91.93
59194;BME280;44967;48.598;15.650;2023-11-21T02:34:45;97662.50;;;3.57;92.12
59194;BME280;44967;48.598;15.650;2023-11-21T02:37:11;97667.72;;;3.58;91.85
59194;BME280;44967;48.598;15.650;2023-11-21T02:39:36;97668.56;;;3.62;92.47
59194;BME280;44967;48.598;15.650;2023-11-21T02:42:03;97673.84;;;3.57;92.86
59194;BME280;44967;48.598;15.650;2023-11-21T02:44:30;97672.91;;;3.60;93.00
59194;BME280;44967;48.598;15.650;2023-11-21T02:46:56;97669.47;;;3.59;93.01
59194;BME280;44967;48.598;15.650;2023-11-21T02:49:23;97672.09;;;3.56;92.95
59194;BME280;44967;48.598;15.650;2023-11-21T02:51:49;97671.28;;;3.54;94.32
59194;BME280;44967;48.598;15.650;2023-11-21T02:54:14;97667.69;;;3.63;93.58
59194;BME280;44967;48.598;15.650;2023-11-21T02:56:42;97670.31;;;3.60;93.48
59194;BME280;44967;48.598;15.650;2023-11-21T02:59:08;97665.94;;;3.62;93.85
59194;BME280;44967;48.598;15.650;2023-11-21T03:01:34;97666.81;;;3.62;93.61
59194;BME280;44967;48.598;15.650;2023-11-21T03:04:00;97670.28;;;3.63;94.07
59194;BME280;44967;48.598;15.650;2023-11-21T03:06:25;97667.63;;;3.64;93.87
59194;BME280;44967;48.598;15.650;2023-11-21T03:08:51;97665.06;;;3.63;93.28
59194;BME280;44967;48.598;15.650;2023-11-21T03:11:17;97661.53;;;3.64;94.08
59194;BME280;44967;48.598;15.650;2023-11-21T03:13:42;97664.16;;;3.65;93.45
59194;BME280;44967;48.598;15.650;2023-11-21T03:16:09;97657.22;;;3.63;93.52
59194;BME280;44967;48.598;15.650;2023-11-21T03:18:36;97675.50;;;3.63;92.88
59194;BME280;44967;48.598;15.650;2023-11-21T03:21:03;97660.78;;;3.57;92.53
59194;BME280;44967;48.598;15.650;2023-11-21T03:23:30;97678.19;;;3.57;92.89
59194;BME280;44967;48.598;15.650;2023-11-21T03:25:56;97673.00;;;3.55;92.43
59194;BME280;44967;48.598;15.650;2023-11-21T03:28:22;97664.25;;;3.56;93.04
59194;BME280;44967;48.598;15.650;2023-11-21T03:30:49;97668.72;;;3.48;92.50
59194;BME280;44967;48.598;15.650;2023-11-21T03:33:15;97663.50;;;3.50;92.58
59194;BME280;44967;48.598;15.650;2023-11-21T03:35:40;97659.03;;;3.58;93.04
59194;BME280;44967;48.598;15.650;2023-11-21T03:38:07;97658.09;;;3.62;92.64
59194;BME280;44967;48.598;15.650;2023-11-21T03:40:35;97662.56;;;3.54;92.51
59194;BME280;44967;48.598;15.650;2023-11-21T03:43:01;97668.59;;;3.57;92.50
59194;BME280;44967;48.598;15.650;2023-11-21T03:45:27;97662.50;;;3.58;92.87
59194;BME280;44967;48.598;15.650;2023-11-21T03:47:53;97665.06;;;3.61;92.69
59194;BME280;44967;48.598;15.650;2023-11-21T03:50:18;97665.94;;;3.62;92.92
59194;BME280;44967;48.598;15.650;2023-11-21T03:52:44;97669.41;;;3.62;93.52
59194;BME280;44967;48.598;15.650;2023-11-21T03:55:09;97666.00;;;3.59;94.16
59194;BME280;44967;48.598;15.650;2023-11-21T03:57:36;97663.34;;;3.60;93.47
59194;BME280;44967;48.598;15.650;2023-11-21T04:00:02;97657.28;;;3.57;93.57
59194;BME280;44967;48.598;15.650;2023-11-21T04:02:30;97659.06;;;3.55;93.65
59194;BME280;44967;48.598;15.650;2023-11-21T04:04:57;97652.16;;;3.51;93.92
59194;BME280;44967;48.598;15.650;2023-11-21T04:07:23;97655.69;;;3.47;93.68
59194;BME280;44967;48.598;15.650;2023-11-21T04:09:49;97661.75;;;3.49;93.07
59194;BME280;44967;48.598;15.650;2023-11-21T04:12:15;97649.66;;;3.43;93.11
59194;BME280;44967;48.598;15.650;2023-11-21T04:14:40;97650.53;;;3.44;92.86
59194;BME280;44967;48.598;15.650;2023-11-21T04:17:06;97650.53;;;3.42;92.67
59194;BME280;44967;48.598;15.650;2023-11-21T04:19:32;97651.41;;;3.41;92.58
59194;BME280;44967;48.598;15.650;2023-11-21T04:21:57;97651.56;;;3.29;91.99
59194;BME280;44967;48.598;15.650;2023-11-21T04:24:24;97653.34;;;3.25;92.09
59194;BME280;44967;48.598;15.650;2023-11-21T04:26:49;97654.22;;;3.26;92.71
59194;BME280;44967;48.598;15.650;2023-11-21T04:29:15;97646.38;;;3.26;92.85
59194;BME280;44967;48.598;15.650;2023-11-21T04:31:41;97652.56;;;3.17;92.58
59194;BME280;44967;48.598;15.650;2023-11-21T04:34:07;97646.47;;;3.17;92.97
59194;BME280;44967;48.598;15.650;2023-11-21T04:36:33;97643.88;;;3.17;93.38
59194;BME280;44967;48.598;15.650;2023-11-21T04:39:00;97643.00;;;3.18;92.85
59194;BME280;44967;48.598;15.650;2023-11-21T04:41:26;97640.38;;;3.16;92.71
59194;BME280;44967;48.598;15.650;2023-11-21T04:43:52;97633.47;;;3.15;93.30
59194;BME280;44967;48.598;15.650;2023-11-21T04:46:17;97632.59;;;3.15;93.52
59194;BME280;44967;48.598;15.650;2023-11-21T04:48:43;97631.69;;;3.17;93.63
59194;BME280;44967;48.598;15.650;2023-11-21T04:51:09;97636.75;;;3.28;93.90
59194;BME280;44967;48.598;15.650;2023-11-21T04:53:37;97635.13;;;3.21;93.44
59194;BME280;44967;48.598;15.650;2023-11-21T04:56:03;97660.41;;;3.17;93.23
59194;BME280;44967;48.598;15.650;2023-11-21T04:58:28;97652.63;;;3.13;92.74
59194;BME280;44967;48.598;15.650;2023-11-21T05:00:54;97652.06;;;2.87;93.37
59194;BME280;44967;48.598;15.650;2023-11-21T05:03:20;97655.44;;;2.95;94.15
59194;BME280;44967;48.598;15.650;2023-11-21T05:05:46;97658.09;;;2.92;94.20
59194;BME280;44967;48.598;15.650;2023-11-21T05:08:11;97656.28;;;2.98;94.21
59194;BME280;44967;48.598;15.650;2023-11-21T05:10:37;97658.78;;;3.06;93.64
59194;BME280;44967;48.598;15.650;2023-11-21T05:13:04;97656.19;;;3.06;93.70
59194;BME280;44967;48.598;15.650;2023-11-21T05:15:35;97664.09;;;2.97;93.00
59194;BME280;44967;48.598;15.650;2023-11-21T05:18:00;97662.44;;;2.90;94.14
59194;BME280;44967;48.598;15.650;2023-11-21T05:20:27;97662.44;;;2.90;94.10
59194;BME280;44967;48.598;15.650;2023-11-21T05:22:53;97657.22;;;2.90;94.24
59194;BME280;44967;48.598;15.650;2023-11-21T05:25:19;97663.34;;;2.87;94.03
59194;BME280;44967;48.598;15.650;2023-11-21T05:27:46;97660.78;;;2.82;94.55
59194;BME280;44967;48.598;15.650;2023-11-21T05:30:13;97676.41;;;2.87;94.75
59194;BME280;44967;48.598;15.650;2023-11-21T05:32:40;97669.47;;;2.81;94.25
59194;BME280;44967;48.598;15.650;2023-11-21T05:35:09;97667.75;;;2.82;94.64
59194;BME280;44967;48.598;15.650;2023-11-21T05:37:38;97673.84;;;2.81;93.76
59194;BME280;44967;48.598;15.650;2023-11-21T05:40:06;97674.66;;;2.84;93.70
59194;BME280;44967;48.598;15.650;2023-11-21T05:42:33;97672.16;;;2.75;93.54
59194;BME280;44967;48.598;15.650;2023-11-21T05:44:59;97670.44;;;2.74;93.61
59194;BME280;44967;48.598;15.650;2023-11-21T05:47:44;97674.03;;;2.64;93.65
59194;BME280;44967;48.598;15.650;2023-11-21T05:50:13;97673.16;;;2.62;94.67
59194;BME280;44967;48.598;15.650;2023-11-21T05:52:46;97676.59;;;2.67;94.59
59194;BME280;44967;48.598;15.650;2023-11-21T05:55:13;97673.06;;;2.71;95.38
59194;BME280;44967;48.598;15.650;2023-11-21T05:57:39;97680.78;;;2.82;94.88
59194;BME280;44967;48.598;15.650;2023-11-21T06:00:07;97681.72;;;2.76;95.34
59194;BME280;44967;48.598;15.650;2023-11-21T06:02:49;97684.25;;;2.84;94.86
59194;BME280;44967;48.598;15.650;2023-11-21T06:05:25;97686.03;;;2.79;94.39
59194;BME280;44967;48.598;15.650;2023-11-21T06:07:55;97691.25;;;2.79;94.03
59194;BME280;44967;48.598;15.650;2023-11-21T06:10:24;97699.13;;;2.73;93.33
59194;BME280;44967;48.598;15.650;2023-11-21T06:12:51;97700.91;;;2.72;93.24
59194;BME280;44967;48.598;15.650;2023-11-21T06:15:17;97700.03;;;2.70;93.00
59194;BME280;44967;48.598;15.650;2023-11-21T06:17:46;97710.50;;;2.67;93.02
59194;BME280;44967;48.598;15.650;2023-11-21T06:20:18;97709.59;;;2.70;93.59
59194;BME280;44967;48.598;15.650;2023-11-21T06:22:48;97712.25;;;2.68;93.86
59194;BME280;44967;48.598;15.650;2023-11-21T06:25:14;97713.16;;;2.64;93.78
59194;BME280;44967;48.598;15.650;2023-11-21T06:27:42;97720.13;;;2.59;93.21
59194;BME280;44967;48.598;15.650;2023-11-21T06:30:09;97713.97;;;2.66;93.64
59194;BME280;44967;48.598;15.650;2023-11-21T06:32:36;97719.22;;;2.62;93.31
59194;BME280;44967;48.598;15.650;2023-11-21T06:35:02;97717.53;;;2.58;93.56
59194;BME280;44967;48.598;15.650;2023-11-21T06:37:30;97719.31;;;2.51;93.46
59194;BME280;44967;48.598;15.650;2023-11-21T06:39:56;97723.66;;;2.55;94.05
59194;BME280;44967;48.598;15.650;2023-11-21T06:42:22;97720.91;;;2.69;95.66
59194;BME280;44967;48.598;15.650;2023-11-21T06:44:48;97732.13;;;2.77;95.82
59194;BME280;44967;48.598;15.650;2023-11-21T06:47:17;97730.34;;;2.80;95.05
59194;BME280;44967;48.598;15.650;2023-11-21T06:49:46;97729.63;;;2.68;93.90
59194;BME280;44967;48.598;15.650;2023-11-21T06:52:13;97723.56;;;2.64;94.44
59194;BME280;44967;48.598;15.650;2023-11-21T06:54:39;97727.94;;;2.62;94.58
59194;BME280;44967;48.598;15.650;2023-11-21T06:57:05;97727.09;;;2.57;95.16
59194;BME280;44967;48.598;15.650;2023-11-21T06:59:31;97735.69;;;2.70;95.15
59194;BME280;44967;48.598;15.650;2023-11-21T07:01:57;97733.00;;;2.77;95.63
59194;BME280;44967;48.598;15.650;2023-11-21T07:04:23;97742.47;;;2.91;95.79
59194;BME280;44967;48.598;15.650;2023-11-21T07:06:52;97752.91;;;2.92;95.08
59194;BME280;44967;48.598;15.650;2023-11-21T07:09:18;97754.56;;;2.98;95.56
59194;BME280;44967;48.598;15.650;2023-11-21T07:11:49;97764.25;;;2.88;94.74
59194;BME280;44967;48.598;15.650;2023-11-21T07:14:15;97759.94;;;2.81;94.28
59194;BME280;44967;48.598;15.650;2023-11-21T07:16:42;97772.09;;;2.80;94.15
59194;BME280;44967;48.598;15.650;2023-11-21T07:19:08;97772.03;;;2.90;94.08
59194;BME280;44967;48.598;15.650;2023-11-21T07:21:38;97778.84;;;3.06;94.51
59194;BME280;44967;48.598;15.650;2023-11-21T07:24:06;97783.88;;;3.27;94.78
59194;BME280;44967;48.598;15.650;2023-11-21T07:26:32;97781.09;;;3.42;95.07
59194;BME280;44967;48.598;15.650;2023-11-21T07:29:00;97780.94;;;3.56;94.20
59194;BME280;44967;48.598;15.650;2023-11-21T07:31:26;97782.63;;;3.63;93.78
59194;BME280;44967;48.598;15.650;2023-11-21T07:33:52;97788.59;;;3.74;93.89
59194;BME280;44967;48.598;15.650;2023-11-21T07:36:19;97787.72;;;3.72;93.54
59194;BME280;44967;48.598;15.650;2023-11-21T07:38:47;97793.81;;;3.74;93.57
59194;BME280;44967;48.598;15.650;2023-11-21T07:41:13;97798.06;;;3.79;93.79
59194;BME280;44967;48.598;15.650;2023-11-21T07:43:43;97798.97;;;3.78;94.17
59194;BME280;44967;48.598;15.650;2023-11-21T07:46:11;97796.31;;;3.82;95.15
59194;BME280;44967;48.598;15.650;2023-11-21T07:48:38;97800.53;;;3.92;95.65
59194;BME280;44967;48.598;15.650;2023-11-21T07:51:05;97796.22;;;3.89;95.66
59194;BME280;44967;48.598;15.650;2023-11-21T07:53:30;97792.59;;;3.99;96.84
59194;BME280;44967;48.598;15.650;2023-11-21T07:55:57;97792.44;;;4.13;96.97
59194;BME280;44967;48.598;15.650;2023-11-21T07:58:23;97792.44;;;4.13;96.57
59194;BME280;44967;48.598;15.650;2023-11-21T08:00:50;97790.63;;;4.18;96.96
59194;BME280;44967;48.598;15.650;2023-11-21T08:03:16;97791.41;;;4.23;97.18
59194;BME280;44967;48.598;15.650;2023-11-21T08:05:42;97788.63;;;4.35;97.02
59194;BME280;44967;48.598;15.650;2023-11-21T08:08:09;97798.16;;;4.42;96.51
59194;BME280;44967;48.598;15.650;2023-11-21T08:10:34;97789.41;;;4.43;96.68
59194;BME280;44967;48.598;15.650;2023-11-21T08:13:02;97794.56;;;4.49;96.33
59194;BME280;44967;48.598;15.650;2023-11-21T08:15:30;97789.28;;;4.51;96.27
59194;BME280;44967;48.598;15.650;2023-11-21T08:17:58;97795.31;;;4.54;96.12
59194;BME280;44967;48.598;15.650;2023-11-21T08:20:27;97797.88;;;4.60;96.14
59194;BME280;44967;48.598;15.650;2023-11-21T08:22:53;97799.56;;;4.64;96.37
59194;BME280;44967;48.598;15.650;2023-11-21T08:25:22;97802.00;;;4.75;96.68
59194;BME280;44967;48.598;15.650;2023-11-21T08:27:48;97805.53;;;4.74;97.06
59194;BME280;44967;48.598;15.650;2023-11-21T08:30:15;97816.88;;;4.73;95.99
59194;BME280;44967;48.598;15.650;2023-11-21T08:32:42;97809.78;;;4.80;96.66
59194;BME280;44967;48.598;15.650;2023-11-21T08:35:08;97806.28;;;4.81;96.50
59194;BME280;44967;48.598;15.650;2023-11-21T08:37:34;97810.66;;;4.80;95.65
59194;BME280;44967;48.598;15.650;2023-11-21T08:40:04;97809.66;;;4.89;96.18
59194;BME280;44967;48.598;15.650;2023-11-21T08:42:35;97805.31;;;4.86;95.58
59194;BME280;44967;48.598;15.650;2023-11-21T08:45:01;97798.38;;;4.85;95.35
59194;BME280;44967;48.598;15.650;2023-11-21T08:47:27;97807.91;;;4.88;95.57
59194;BME280;44967;48.598;15.650;2023-11-21T08:49:53;97807.84;;;4.91;94.73
59194;BME280;44967;48.598;15.650;2023-11-21T08:52:19;97809.53;;;4.95;94.27
59194;BME280;44967;48.598;15.650;2023-11-21T08:54:49;97812.09;;;4.99;94.78
59194;BME280;44967;48.598;15.650;2023-11-21T08:57:25;97805.84;;;5.08;94.67
59194;BME280;44967;48.598;15.650;2023-11-21T08:59:51;97802.16;;;5.18;94.84
59194;BME280;44967;48.598;15.650;2023-11-21T09:02:25;97805.44;;;5.32;94.61
59194;BME280;44967;48.598;15.650;2023-11-21T09:04:52;97806.16;;;5.85;97.56
59194;BME280;44967;48.598;15.650;2023-11-21T09:07:21;97807.75;;;5.95;96.43
59194;BME280;44967;48.598;15.650;2023-11-21T09:09:47;97796.28;;;6.00;94.91
59194;BME280;44967;48.598;15.650;2023-11-21T09:12:14;97801.50;;;6.42;95.23
59194;BME280;44967;48.598;15.650;2023-11-21T09:14:40;97792.81;;;6.78;94.58
59194;BME280;44967;48.598;15.650;2023-11-21T09:17:06;97791.44;;;6.99;95.33
59194;BME280;44967;48.598;15.650;2023-11-21T09:19:37;97786.88;;;7.05;93.73
59194;BME280;44967;48.598;15.650;2023-11-21T09:22:04;97787.38;;;6.86;90.38
59194;BME280;44967;48.598;15.650;2023-11-21T09:24:34;97781.34;;;6.81;90.08
59194;BME280;44967;48.598;15.650;2023-11-21T09:27:00;97772.72;;;6.76;89.83
59194;BME280;44967;48.598;15.650;2023-11-21T09:29:26;97777.97;;;6.76;90.24
59194;BME280;44967;48.598;15.650;2023-11-21T09:31:52;97774.44;;;6.77;90.34
59194;BME280;44967;48.598;15.650;2023-11-21T09:34:21;97771.00;;;6.75;90.05
59194;BME280;44967;48.598;15.650;2023-11-21T09:36:47;97763.75;;;6.86;87.80
59194;BME280;44967;48.598;15.650;2023-11-21T09:39:13;97765.53;;;6.84;88.49
59194;BME280;44967;48.598;15.650;2023-11-21T09:41:49;97775.19;;;6.83;88.31
59194;BME280;44967;48.598;15.650;2023-11-21T09:44:24;97772.59;;;6.82;87.53
59194;BME280;44967;48.598;15.650;2023-11-21T09:46:59;97765.59;;;6.81;87.93
59194;BME280;44967;48.598;15.650;2023-11-21T09:49:26;97761.22;;;6.81;88.04
59194;BME280;44967;48.598;15.650;2023-11-21T09:51:54;97759.38;;;6.85;86.45
59194;BME280;44967;48.598;15.650;2023-11-21T09:54:21;97748.84;;;6.86;88.29
59194;BME280;44967;48.598;15.650;2023-11-21T09:56:48;97753.03;;;6.95;88.05
59194;BME280;44967;48.598;15.650;2023-11-21T09:59:16;97751.78;;;7.08;88.15
59194;BME280;44967;48.598;15.650;2023-11-21T10:01:42;97744.50;;;7.19;87.89
59194;BME280;44967;48.598;15.650;2023-11-21T10:04:11;97747.66;;;7.32;88.73
59194;BME280;44967;48.598;15.650;2023-11-21T10:06:41;97757.72;;;7.48;88.11
59194;BME280;44967;48.598;15.650;2023-11-21T10:09:09;97756.56;;;7.58;88.12
59194;BME280;44967;48.598;15.650;2023-11-21T10:11:41;97754.03;;;7.86;86.90
59194;BME280;44967;48.598;15.650;2023-11-21T10:14:10;97747.31;;;8.07;86.31
59194;BME280;44967;48.598;15.650;2023-11-21T10:16:38;97749.91;;;8.38;84.46
59194;BME280;44967;48.598;15.650;2023-11-21T10:19:05;97737.56;;;8.68;83.13
59194;BME280;44967;48.598;15.650;2023-11-21T10:21:34;97739.91;;;9.03;79.50
59194;BME280;44967;48.598;15.650;2023-11-21T10:23:59;97735.22;;;9.37;79.29
59194;BME280;44967;48.598;15.650;2023-11-21T10:26:29;97734.03;;;9.46;76.82
59194;BME280;44967;48.598;15.650;2023-11-21T10:28:58;97746.84;;;9.57;76.12
59194;BME280;44967;48.598;15.650;2023-11-21T10:31:26;97736.41;;;9.54;74.16
59194;BME280;44967;48.598;15.650;2023-11-21T10:33:53;97742.25;;;9.63;75.26
59194;BME280;44967;48.598;15.650;2023-11-21T10:36:26;97744.72;;;9.68;74.08
59194;BME280;44967;48.598;15.650;2023-11-21T10:38:55;97751.09;;;9.61;73.97
59194;BME280;44967;48.598;15.650;2023-11-21T10:41:22;97748.16;;;9.70;74.06
59194;BME280;44967;48.598;15.650;2023-11-21T10:43:48;97740.81;;;9.78;74.90
59194;BME280;44967;48.598;15.650;2023-11-21T10:46:14;97738.06;;;9.81;75.48
59194;BME280;44967;48.598;15.650;2023-11-21T10:48:43;97744.38;;;9.77;74.97
59194;BME280;44967;48.598;15.650;2023-11-21T10:51:09;97737.31;;;9.77;72.91
59194;BME280;44967;48.598;15.650;2023-11-21T10:53:39;97742.44;;;9.82;72.74
59194;BME280;44967;48.598;15.650;2023-11-21T10:56:09;97747.25;;;9.94;71.98
59194;BME280;44967;48.598;15.650;2023-11-21T10:58:43;97747.44;;;9.89;73.26
59194;BME280;44967;48.598;15.650;2023-11-21T11:01:09;97749.31;;;9.86;72.82
59194;BME280;44967;48.598;15.650;2023-11-21T11:03:41;97742.19;;;9.88;72.06
59194;BME280;44967;48.598;15.650;2023-11-21T11:06:07;97742.25;;;9.86;72.41
59194;BME280;44967;48.598;15.650;2023-11-21T11:08:37;97750.09;;;9.88;71.52
59194;BME280;44967;48.598;15.650;2023-11-21T11:11:07;97752.31;;;10.00;71.25
59194;BME280;44967;48.598;15.650;2023-11-21T11:13:35;97747.38;;;9.91;70.08
59194;BME280;44967;48.598;15.650;2023-11-21T11:16:02;97738.63;;;9.89;71.22
59194;BME280;44967;48.598;15.650;2023-11-21T11:18:33;97735.88;;;9.92;70.71
59194;BME280;44967;48.598;15.650;2023-11-21T11:21:42;97732.38;;;10.16;72.76
59194;BME280;44967;48.598;15.650;2023-11-21T11:24:17;97735.50;;;10.03;69.89
59194;BME280;44967;48.598;15.650;2023-11-21T11:27:54;97743.47;;;10.01;71.67
59194;BME280;44967;48.598;15.650;2023-11-21T11:32:43;97742.09;;;9.91;71.65
59194;BME280;44967;48.598;15.650;2023-11-21T11:38:05;97746.09;;;9.78;71.96
59194;BME280;44967;48.598;15.650;2023-11-21T11:40:45;97736.09;;;9.87;71.70
59194;BME280;44967;48.598;15.650;2023-11-21T11:43:11;97742.00;;;9.69;72.69
59194;BME280;44967;48.598;15.650;2023-11-21T11:45:38;97743.09;;;9.64;72.59
59194;BME280;44967;48.598;15.650;2023-11-21T11:48:10;97735.94;;;9.67;73.16
59194;BME280;44967;48.598;15.650;2023-11-21T11:51:00;97737.88;;;9.62;72.85
59194;BME280;44967;48.598;15.650;2023-11-21T11:53:36;97745.75;;;9.64;71.84
59194;BME280;44967;48.598;15.650;2023-11-21T11:58:55;97744.13;;;9.60;73.28
59194;BME280;44967;48.598;15.650;2023-11-21T12:01:23;97742.16;;;9.65;73.65
59194;BME280;44967;48.598;15.650;2023-11-21T12:06:42;97750.06;;;9.65;72.66
59194;BME280;44967;48.598;15.650;2023-11-21T12:09:24;97746.97;;;9.78;72.47
59194;BME280;44967;48.598;15.650;2023-11-21T12:11:53;97751.00;;;9.64;72.89
59194;BME280;44967;48.598;15.650;2023-11-21T12:14:22;97763.41;;;9.60;73.50
59194;BME280;44967;48.598;15.650;2023-11-21T12:16:49;97753.88;;;9.56;73.56
59194;BME280;44967;48.598;15.650;2023-11-21T12:19:14;97752.50;;;9.71;73.29
59194;BME280;44967;48.598;15.650;2023-11-21T12:21:41;97743.31;;;9.58;73.36
59194;BME280;44967;48.598;15.650;2023-11-21T12:24:07;97739.78;;;9.57;73.76
59194;BME280;44967;48.598;15.650;2023-11-21T12:26:42;97748.81;;;9.52;73.54
59194;BME280;44967;48.598;15.650;2023-11-21T12:29:09;97743.56;;;9.50;73.31
59194;BME280;44967;48.598;15.650;2023-11-21T12:31:36;97742.41;;;9.59;73.46
59194;BME280;44967;48.598;15.650;2023-11-21T12:34:01;97745.03;;;9.59;74.42
59194;BME280;44967;48.598;15.650;2023-11-21T12:36:27;97742.31;;;9.60;74.30
59194;BME280;44967;48.598;15.650;2023-11-21T12:38:56;97744.91;;;9.62;73.91
59194;BME280;44967;48.598;15.650;2023-11-21T12:41:22;97735.75;;;9.72;74.25
59194;BME280;44967;48.598;15.650;2023-11-21T12:43:48;97743.09;;;9.64;73.38
59194;BME280;44967;48.598;15.650;2023-11-21T12:46:14;97748.38;;;9.64;73.12
59194;BME280;44967;48.598;15.650;2023-11-21T12:48:44;97750.00;;;9.68;73.30
59194;BME280;44967;48.598;15.650;2023-11-21T12:51:13;97750.41;;;9.56;73.02
59194;BME280;44967;48.598;15.650;2023-11-21T12:53:40;97748.41;;;9.62;73.43
59194;BME280;44967;48.598;15.650;2023-11-21T12:56:09;97744.91;;;9.62;72.66
59194;BME280;44967;48.598;15.650;2023-11-21T12:58:36;97751.31;;;9.55;72.88
59194;BME280;44967;48.598;15.650;2023-11-21T13:01:02;97747.56;;;9.62;73.75
59194;BME280;44967;48.598;15.650;2023-11-21T13:03:31;97756.44;;;9.59;73.06
59194;BME280;44967;48.598;15.650;2023-11-21T13:05:58;97754.41;;;9.67;71.22
59194;BME280;44967;48.598;15.650;2023-11-21T13:08:25;97753.84;;;9.58;71.79
59194;BME280;44967;48.598;15.650;2023-11-21T13:10:54;97761.72;;;9.59;72.17
59194;BME280;44967;48.598;15.650;2023-11-21T13:13:20;97755.91;;;9.74;71.47